Time;durP1;ratioP1;P1;durP2;ratioP2;P2;SDS_P1;SDS_P2;PMS_P1;PMS_P2;Temp;Humidity;BMP_temperature;BMP_pressure;BME280_temperature;BME280_humidity;BME280_pressure;Samples;Min_cycle;Max_cycle;Signal;HPM_P1;HPM_P2
2024/01/13 16:58:16;;;;;;;43.45;17.92;;;0.20;1.00;;;;;;5043604;27;1573424;-52
2024/01/13 17:00:42;;;;;;;36.42;16.88;;;0.10;1.00;;;;;;5051100;28;20040;-50
2024/01/13 17:03:07;;;;;;;48.10;22.33;;;0.10;1.00;;;;;;5066513;28;20028;-52
2024/01/13 17:05:33;;;;;;;39.20;17.05;;;0.10;1.00;;;;;;5078436;28;20032;-53
2024/01/13 17:07:59;;;;;;;49.13;22.20;;;0.20;1.00;;;;;;5076424;28;20066;-53
2024/01/13 17:10:25;;;;;;;45.78;20.90;;;0.10;1.00;;;;;;5072384;28;20036;-53
2024/01/13 17:12:50;;;;;;;55.08;24.67;;;0.10;1.00;;;;;;5076640;28;20035;-54
2024/01/13 17:15:17;;;;;;;47.95;22.42;;;0.10;1.00;;;;;;5058633;28;20482;-54
2024/01/13 17:17:43;;;;;;;53.97;21.35;;;0.20;1.00;;;;;;5058465;28;20174;-53
2024/01/13 17:20:12;;;;;;;43.55;22.45;;;0.20;1.00;;;;;;5052785;28;20157;-52
2024/01/13 17:22:38;;;;;;;55.33;23.35;;;0.20;1.00;;;;;;5057704;28;20036;-54
2024/01/13 17:25:04;;;;;;;63.88;27.88;;;0.10;1.00;;;;;;5058520;28;20070;-52
2024/01/13 17:27:31;;;;;;;53.17;23.65;;;0.10;1.00;;;;;;5060311;28;21570;-52
2024/01/13 17:29:57;;;;;;;55.05;22.45;;;0.10;1.00;;;;;;5052473;28;20032;-51
2024/01/13 17:32:23;;;;;;;56.10;24.83;;;0.10;1.00;;;;;;5057330;28;20391;-51
2024/01/13 17:34:48;;;;;;;53.15;22.90;;;0.20;1.00;;;;;;5056920;28;20882;-51
2024/01/13 17:37:14;;;;;;;60.28;24.83;;;0.20;1.00;;;;;;5057288;28;20539;-49
2024/01/13 17:39:39;;;;;;;51.53;21.63;;;0.10;1.00;;;;;;5051878;28;20051;-51
2024/01/13 17:42:05;;;;;;;50.00;22.75;;;0.20;1.00;;;;;;5057470;28;20036;-53
2024/01/13 17:44:31;;;;;;;50.03;21.88;;;0.20;1.00;;;;;;5057323;28;20029;-53
2024/01/13 17:46:56;;;;;;;41.08;20.15;;;0.10;1.00;;;;;;5057298;28;20163;-53
2024/01/13 17:49:23;;;;;;;43.67;21.08;;;0.10;1.00;;;;;;5052358;28;20021;-49
2024/01/13 17:51:49;;;;;;;41.92;18.08;;;0.10;1.00;;;;;;5057478;28;20162;-54
2024/01/13 17:54:15;;;;;;;40.70;17.90;;;0.10;1.00;;;;;;5057285;28;20036;-51
2024/01/13 17:56:41;;;;;;;34.97;17.92;;;0.10;1.00;;;;;;5056669;28;20310;-51
2024/01/13 17:59:07;;;;;;;37.92;19.27;;;0.10;1.00;;;;;;5055693;28;20032;-53
2024/01/13 18:01:34;;;;;;;47.58;21.65;;;0.10;1.00;;;;;;5054351;28;20039;-50
2024/01/13 18:04:02;;;;;;;;;;;0.10;1.00;;;;;;5057156;28;20036;-52
2024/01/13 18:06:28;;;;;;;38.55;18.90;;;0.10;1.00;;;;;;5038974;28;20002;-53
2024/01/13 18:08:54;;;;;;;38.97;18.35;;;0.10;1.00;;;;;;5047394;28;20021;-52
2024/01/13 18:11:20;;;;;;;40.55;17.35;;;0.10;1.00;;;;;;5038504;28;20036;-51
2024/01/13 18:13:46;;;;;;;39.20;18.33;;;0.10;1.00;;;;;;5044787;28;20017;-52
2024/01/13 18:16:11;;;;;;;47.35;21.92;;;0.10;1.00;;;;;;5025279;28;20044;-51
2024/01/13 18:18:37;;;;;;;48.03;20.75;;;0.10;1.00;;;;;;5043734;28;20040;-51
2024/01/13 18:21:03;;;;;;;79.70;29.77;;;0.00;1.00;;;;;;5019798;28;20884;-53
2024/01/13 18:23:29;;;;;;;65.88;26.85;;;0.00;1.00;;;;;;5025086;28;20024;-52
2024/01/13 18:25:55;;;;;;;42.08;17.63;;;0.10;1.00;;;;;;5025617;28;20906;-52
2024/01/13 18:28:20;;;;;;;48.88;20.63;;;0.10;1.00;;;;;;5043436;28;20032;-53
2024/01/13 18:30:47;;;;;;;42.25;18.75;;;0.10;1.00;;;;;;5003112;28;20094;-50
2024/01/13 18:33:12;;;;;;;37.28;16.40;;;0.10;1.00;;;;;;5044005;28;20484;-53
2024/01/13 18:35:38;;;;;;;39.30;16.20;;;0.00;1.00;;;;;;5044272;28;20145;-51
2024/01/13 18:38:05;;;;;;;36.22;15.40;;;0.00;1.00;;;;;;5043532;28;20464;-52
2024/01/13 18:40:32;;;;;;;34.78;16.83;;;0.00;1.00;;;;;;5038114;28;20170;-53
2024/01/13 18:42:57;;;;;;;41.40;17.83;;;0.00;1.00;;;;;;5043410;28;20036;-52
2024/01/13 18:45:23;;;;;;;32.92;16.50;;;0.00;1.00;;;;;;5043477;28;20333;-52
2024/01/13 18:47:49;;;;;;;29.92;15.02;;;0.00;1.00;;;;;;5043871;28;20035;-50
2024/01/13 18:50:18;;;;;;;37.47;16.60;;;0.00;1.00;;;;;;5037621;28;20051;-53
2024/01/13 18:52:43;;;;;;;37.60;16.50;;;0.00;1.00;;;;;;5008010;28;20043;-54
2024/01/13 18:55:09;;;;;;;34.40;16.23;;;0.00;1.00;;;;;;5043562;28;20029;-50
2024/01/13 18:57:35;;;;;;;47.92;20.80;;;0.00;1.00;;;;;;5042884;28;20056;-52
2024/01/13 19:00:01;;;;;;;38.05;18.75;;;0.00;1.00;;;;;;5037699;28;20033;-54
2024/01/13 19:02:28;;;;;;;36.97;16.40;;;0.00;1.00;;;;;;5043109;28;20039;-52
2024/01/13 19:04:54;;;;;;;28.23;14.27;;;-0.10;1.00;;;;;;5043465;28;20036;-52
2024/01/13 19:07:21;;;;;;;29.60;14.23;;;-0.10;1.00;;;;;;5042569;28;20047;-53
2024/01/13 19:09:48;;;;;;;35.08;16.30;;;-0.10;1.00;;;;;;5044814;28;20027;-53
2024/01/13 19:12:14;;;;;;;28.95;14.60;;;-0.10;1.00;;;;;;5042501;28;20123;-52
2024/01/13 19:14:40;;;;;;;37.03;17.40;;;-0.10;1.00;;;;;;5042820;28;20028;-53
2024/01/13 19:17:08;;;;;;;47.80;19.15;;;-0.10;1.00;;;;;;5042750;28;20140;-53
2024/01/13 19:19:34;;;;;;;39.05;17.13;;;-0.10;1.00;;;;;;5042312;28;20095;-54
2024/01/13 19:21:59;;;;;;;39.67;17.15;;;-0.10;99.90;;;;;;5038200;28;20024;-52
2024/01/13 19:24:33;;;;;;;31.73;15.70;;;-0.10;99.90;;;;;;5043251;28;20410;-56
2024/01/13 19:27:00;;;;;;;31.83;15.43;;;-0.10;99.90;;;;;;5042226;28;20039;-53
2024/01/13 19:29:25;;;;;;;35.83;16.17;;;-0.10;99.90;;;;;;5051409;28;20873;-51
2024/01/13 19:31:51;;;;;;;41.42;17.45;;;-0.10;99.90;;;;;;5051389;28;20052;-50
2024/01/13 19:34:17;;;;;;;30.77;14.85;;;-0.10;99.90;;;;;;5042348;28;20027;-53
2024/01/13 19:36:42;;;;;;;38.75;18.35;;;-0.10;99.90;;;;;;5040689;28;20028;-51
2024/01/13 19:39:10;;;;;;;38.50;17.40;;;-0.10;99.90;;;;;;5039892;28;20028;-52
2024/01/13 19:41:36;;;;;;;42.60;17.65;;;-0.20;99.90;;;;;;5035029;28;20105;-53
2024/01/13 19:44:03;;;;;;;41.00;17.30;;;-0.20;99.90;;;;;;5040709;28;20025;-54
2024/01/13 19:46:28;;;;;;;;;;;-0.20;99.90;;;;;;5041408;28;20157;-54
2024/01/13 19:48:54;;;;;;;47.30;20.13;;;-0.20;99.90;;;;;;5040117;28;19908;-53
2024/01/13 19:51:21;;;;;;;46.88;20.00;;;-0.20;99.90;;;;;;5036522;28;20834;-53
2024/01/13 19:53:48;;;;;;;43.25;19.48;;;-0.20;99.90;;;;;;5039784;28;20048;-50
2024/01/13 19:56:14;;;;;;;39.38;18.77;;;-0.20;99.90;;;;;;5041333;28;20143;-54
2024/01/13 19:58:39;;;;;;;35.53;19.67;;;-0.20;1.00;;;;;;5040556;28;20050;-53
2024/01/13 20:01:07;;;;;;;42.53;18.60;;;-0.30;1.00;;;;;;5039328;28;21039;-51
2024/01/13 20:03:33;;;;;;;47.35;21.33;;;-0.20;1.00;;;;;;5036447;28;20111;-51
2024/01/13 20:05:59;;;;;;;47.80;21.83;;;-0.30;1.00;;;;;;5039965;28;20543;-54
2024/01/13 20:08:26;;;;;;;41.38;18.77;;;-0.30;1.00;;;;;;5039924;28;20090;-53
2024/01/13 20:10:52;;;;;;;;;;;-0.30;1.00;;;;;;5040181;28;20032;-51
2024/01/13 20:13:18;;;;;;;48.35;20.85;;;-0.30;1.00;;;;;;5034980;28;19951;-54
2024/01/13 20:15:43;;;;;;;45.42;21.38;;;-0.30;1.00;;;;;;5039744;28;20123;-53
2024/01/13 20:18:10;;;;;;;38.53;18.38;;;-0.40;1.00;;;;;;5040291;28;20039;-52
2024/01/13 20:20:35;;;;;;;42.50;19.50;;;-0.40;1.00;;;;;;5041018;28;20071;-50
2024/01/13 20:23:03;;;;;;;41.75;19.27;;;-0.40;1.00;;;;;;5034976;28;20025;-52
2024/01/13 20:25:29;;;;;;;37.58;18.67;;;-0.40;1.00;;;;;;5039998;28;20078;-51
2024/01/13 20:27:54;;;;;;;44.30;21.27;;;-0.40;1.00;;;;;;5039471;28;20451;-54
2024/01/13 20:30:21;;;;;;;45.85;21.75;;;-0.30;1.00;;;;;;5039839;28;20758;-52
2024/01/13 20:32:50;;;;;;;51.60;23.35;;;-0.30;1.00;;;;;;5034754;28;20174;-50
2024/01/13 20:35:15;;;;;;;44.70;21.02;;;-0.40;1.00;;;;;;5039339;28;20038;-53
2024/01/13 20:37:41;;;;;;;45.90;22.58;;;-0.40;1.00;;;;;;5040124;28;20037;-50
2024/01/13 20:40:11;;;;;;;50.10;22.55;;;-0.40;1.00;;;;;;5039595;28;20059;-50
2024/01/13 20:42:39;;;;;;;46.50;22.40;;;-0.40;1.00;;;;;;5034210;28;20155;-52
2024/01/13 20:45:05;;;;;;;44.13;21.63;;;-0.40;1.00;;;;;;5039667;28;20445;-51
2024/01/13 20:47:31;;;;;;;47.23;20.77;;;-0.40;1.00;;;;;;5039983;28;20096;-49
2024/01/13 20:49:57;;;;;;;50.90;22.67;;;-0.40;1.00;;;;;;5040447;28;20055;-52
2024/01/13 20:52:22;;;;;;;47.58;21.95;;;-0.40;1.00;;;;;;5034703;28;20839;-53
2024/01/13 20:54:48;;;;;;;51.05;23.73;;;-0.40;1.00;;;;;;5039230;28;20028;-51
2024/01/13 20:57:14;;;;;;;35.95;19.67;;;-0.40;1.00;;;;;;5039666;28;20049;-52
2024/01/13 20:59:43;;;;;;;45.95;20.08;;;-0.40;1.00;;;;;;5039867;28;20082;-51
2024/01/13 21:02:09;;;;;;;33.55;16.83;;;-0.40;1.00;;;;;;5034498;28;20028;-53
2024/01/13 21:04:35;;;;;;;32.90;17.02;;;-0.40;1.00;;;;;;5039470;28;20105;-51
2024/01/13 21:07:03;;;;;;;36.72;17.83;;;-0.40;1.00;;;;;;5039946;28;20147;-52
2024/01/13 21:09:29;;;;;;;37.53;17.63;;;-0.40;1.00;;;;;;5039922;28;20041;-50
2024/01/13 21:11:55;;;;;;;38.50;18.50;;;-0.40;1.00;;;;;;5002376;28;20056;-51
2024/01/13 21:14:21;;;;;;;31.40;16.90;;;-0.40;1.00;;;;;;5039547;28;20486;-50
2024/01/13 21:16:47;;;;;;;32.72;17.02;;;-0.50;1.00;;;;;;5039274;28;20775;-54
2024/01/13 21:19:13;;;;;;;32.85;16.00;;;-0.50;1.00;;;;;;5039977;28;20036;-52
2024/01/13 21:21:38;;;;;;;30.48;16.70;;;-0.50;1.00;;;;;;5035457;28;20047;-53
2024/01/13 21:24:05;;;;;;;28.38;15.60;;;-0.50;1.00;;;;;;5039400;28;20234;-51
2024/01/13 21:26:31;;;;;;;32.58;16.02;;;-0.50;1.00;;;;;;5039334;28;20103;-51
2024/01/13 21:28:56;;;;;;;33.63;18.00;;;-0.50;1.00;;;;;;5040002;28;20048;-54
2024/01/13 21:31:23;;;;;;;33.90;17.00;;;-0.50;1.00;;;;;;5036815;28;20028;-52
2024/01/13 21:33:50;;;;;;;33.78;16.58;;;-0.60;1.00;;;;;;5038767;28;20040;-54
2024/01/13 21:36:15;;;;;;;34.15;17.67;;;-0.60;1.00;;;;;;5039550;28;20083;-50
2024/01/13 21:38:46;;;;;;;35.03;18.80;;;-0.60;1.00;;;;;;5040113;28;20136;-52
2024/01/13 21:41:13;;;;;;;36.38;19.58;;;-0.60;99.90;;;;;;5038123;28;21754;-51
2024/01/13 21:43:38;;;;;;;34.53;17.35;;;-0.60;99.90;;;;;;5040211;28;20386;-52
2024/01/13 21:46:04;;;;;;;29.08;17.05;;;-0.60;99.90;;;;;;5063159;28;20033;-56
2024/01/13 21:48:30;;;;;;;30.48;16.70;;;-0.60;70.00;;;;;;5063580;28;20833;-51
2024/01/13 21:50:56;;;;;;;32.22;17.55;;;-0.60;92.20;;;;;;5050032;28;20125;-49
2024/01/13 21:53:24;;;;;;;29.95;17.30;;;-0.70;86.20;;;;;;5038170;28;20024;-49
2024/01/13 21:55:50;;;;;;;30.15;15.90;;;-0.70;90.20;;;;;;5040783;28;20449;-57
2024/01/13 21:58:16;;;;;;;36.20;18.23;;;-0.60;49.90;;;;;;5042839;28;20084;-52
2024/01/13 22:00:42;;;;;;;24.05;14.73;;;-0.70;81.60;;;;;;5043338;28;20041;-52
2024/01/13 22:03:08;;;;;;;31.97;16.87;;;-0.70;71.90;;;;;;5039320;28;20101;-54
2024/01/13 22:05:35;;;;;;;28.27;15.23;;;-0.70;52.10;;;;;;5042690;28;20428;-50
2024/01/13 22:08:01;;;;;;;26.88;14.60;;;-0.70;94.00;;;;;;5042144;28;20037;-52
2024/01/13 22:10:34;;;;;;;;;;;-0.70;45.40;;;;;;5043021;28;20086;-51
2024/01/13 22:13:01;;;;;;;27.98;14.85;;;-0.70;71.20;;;;;;5036158;28;20439;-50
2024/01/13 22:15:26;;;;;;;25.63;14.67;;;-0.70;50.30;;;;;;5039938;28;20029;-50
2024/01/13 22:17:52;;;;;;;27.05;14.45;;;-0.70;64.90;;;;;;5040792;28;20051;-51
2024/01/13 22:20:18;;;;;;;22.98;13.98;;;-0.70;31.60;;;;;;5042241;28;20024;-51
2024/01/13 22:22:44;;;;;;;31.83;16.52;;;-0.70;99.90;;;;;;5039372;28;20036;-55
2024/01/13 22:25:10;;;;;;;31.77;16.80;;;-0.70;99.90;;;;;;5042232;28;20464;-53
2024/01/13 22:27:36;;;;;;;28.10;15.48;;;-0.70;99.90;;;;;;5041419;28;20480;-52
2024/01/13 22:30:02;;;;;;;31.23;15.70;;;-0.70;99.90;;;;;;5042682;28;20044;-51
2024/01/13 22:32:28;;;;;;;32.30;15.20;;;-0.80;99.90;;;;;;5038662;28;21190;-52
2024/01/13 22:34:54;;;;;;;33.57;14.60;;;-0.80;99.90;;;;;;5042796;28;20036;-51
2024/01/13 22:37:19;;;;;;;47.65;18.92;;;-0.80;99.90;;;;;;5042111;28;20299;-53
2024/01/13 22:39:45;;;;;;;32.38;16.67;;;-0.80;99.90;;;;;;5041641;28;20028;-52
2024/01/13 22:42:13;;;;;;;32.80;16.55;;;-0.80;99.90;;;;;;5038659;28;20029;-53
2024/01/13 22:44:39;;;;;;;40.72;18.23;;;-0.80;99.90;;;;;;5042816;28;20246;-50
2024/01/13 22:47:04;;;;;;;26.67;14.43;;;-0.80;99.90;;;;;;5024476;28;20495;-52
2024/01/13 22:49:30;;;;;;;36.78;16.73;;;-0.80;99.90;;;;;;5042262;28;20024;-52
2024/01/13 22:51:56;;;;;;;39.92;18.90;;;-0.80;99.90;;;;;;5037720;28;21145;-52
2024/01/13 22:54:22;;;;;;;37.73;17.67;;;-0.80;99.90;;;;;;5042271;28;20035;-51
2024/01/13 22:56:49;;;;;;;38.00;16.73;;;-0.80;99.90;;;;;;5041508;28;20583;-51
2024/01/13 22:59:15;;;;;;;33.33;17.15;;;-0.80;99.90;;;;;;5007253;28;20449;-51
2024/01/13 23:01:41;;;;;;;38.75;17.48;;;-0.80;99.90;;;;;;5036518;28;20468;-52
2024/01/13 23:04:07;;;;;;;32.17;15.93;;;-0.80;99.90;;;;;;5022618;28;20024;-52
2024/01/13 23:06:32;;;;;;;28.05;15.45;;;-0.80;99.90;;;;;;5041627;28;20056;-51
2024/01/13 23:08:58;;;;;;;35.50;16.98;;;-0.80;99.90;;;;;;5042453;28;20413;-52
2024/01/13 23:11:24;;;;;;;40.22;19.70;;;-0.80;99.90;;;;;;5038253;28;20054;-48
2024/01/13 23:13:50;;;;;;;36.05;16.85;;;-0.80;99.90;;;;;;5040710;28;20035;-50
2024/01/13 23:16:22;;;;;;;34.47;18.27;;;-0.80;99.90;;;;;;5041993;28;20048;-51
2024/01/13 23:18:48;;;;;;;38.17;18.63;;;-0.80;99.90;;;;;;5058453;28;20036;-53
2024/01/13 23:21:14;;;;;;;33.53;15.30;;;-0.80;99.90;;;;;;5067840;28;20036;-52
2024/01/13 23:23:40;;;;;;;33.95;16.77;;;-0.90;99.90;;;;;;5066754;28;20059;-55
2024/01/13 23:26:08;;;;;;;30.00;16.13;;;-0.90;99.90;;;;;;5067486;28;20075;-51
2024/01/13 23:28:36;;;;;;;32.40;16.48;;;-0.90;99.90;;;;;;5067817;28;20055;-50
2024/01/13 23:31:02;;;;;;;26.17;15.25;;;-0.80;99.90;;;;;;5066028;28;20104;-51
2024/01/13 23:33:27;;;;;;;29.48;16.08;;;-0.80;99.90;;;;;;5067380;28;20028;-51
2024/01/13 23:35:53;;;;;;;29.77;16.17;;;-0.80;99.90;;;;;;5067517;28;20032;-53
2024/01/13 23:38:19;;;;;;;30.08;14.55;;;-0.90;99.90;;;;;;5067160;28;20047;-54
2024/01/13 23:40:44;;;;;;;28.92;15.98;;;-0.90;99.90;;;;;;5068458;28;20068;-50
2024/01/13 23:43:10;;;;;;;27.45;15.25;;;-0.80;99.90;;;;;;5065132;28;20393;-51
2024/01/13 23:45:36;;;;;;;30.17;16.30;;;-0.80;99.90;;;;;;5048089;28;20507;-49
2024/01/13 23:48:01;;;;;;;30.63;17.00;;;-0.80;99.90;;;;;;5066726;28;20111;-53
2024/01/13 23:50:30;;;;;;;26.80;16.45;;;-0.80;99.90;;;;;;5065364;28;20111;-51
2024/01/13 23:52:55;;;;;;;26.65;15.60;;;-0.80;99.90;;;;;;5066354;28;20056;-51
2024/01/13 23:55:51;;;;;;;;;;;;;;;;;;;;;
2024/01/13 23:58:19;;;;;;;29.50;16.00;;;-0.80;99.90;;;;;;5050127;28;20058;-49
